Time;durP1;ratioP1;P1;durP2;ratioP2;P2;SDS_P1;SDS_P2;PMS_P1;PMS_P2;Temp;Humidity;BMP_temperature;BMP_pressure;BME280_temperature;BME280_humidity;BME280_pressure;Samples;Min_cycle;Max_cycle;Signal;HPM_P1;HPM_P2
2023/02/06 00:00:51;;;;;;;34.22;21.67;;;4.20;99.90;;;;;;4887486;29;20092;-77
2023/02/06 00:03:19;;;;;;;32.83;22.48;;;4.20;99.90;;;;;;4888281;29;20048;-78
2023/02/06 00:05:56;;;;;;;35.13;24.00;;;4.30;99.90;;;;;;4886233;29;20063;-78
2023/02/06 00:08:24;;;;;;;38.25;24.27;;;4.20;99.90;;;;;;4890587;29;20056;-77
2023/02/06 00:10:51;;;;;;;36.17;22.90;;;4.20;99.90;;;;;;4891960;29;20062;-77
2023/02/06 00:13:19;;;;;;;38.90;25.42;;;4.20;99.90;;;;;;4879763;29;20649;-78
2023/02/06 00:15:45;;;;;;;40.97;25.50;;;4.20;99.90;;;;;;4881887;29;20049;-78
2023/02/06 00:18:12;;;;;;;41.88;24.55;;;4.20;99.90;;;;;;4894204;29;20570;-78
2023/02/06 00:20:39;;;;;;;43.63;25.98;;;4.20;99.90;;;;;;4890334;29;20547;-78
2023/02/06 00:23:06;;;;;;;43.05;27.17;;;4.20;99.90;;;;;;4892075;29;20049;-78
2023/02/06 00:25:32;;;;;;;40.83;26.83;;;4.20;99.90;;;;;;4891898;29;20135;-78
2023/02/06 00:27:59;;;;;;;47.25;25.98;;;4.30;99.90;;;;;;4887900;29;20059;-78
2023/02/06 00:30:26;;;;;;;39.63;25.17;;;4.20;99.90;;;;;;4883944;29;20053;-77
2023/02/06 00:32:53;;;;;;;41.47;24.85;;;4.20;99.90;;;;;;4867659;29;20185;-78
2023/02/06 00:35:19;;;;;;;39.40;24.42;;;4.20;99.90;;;;;;4893678;29;20485;-78
2023/02/06 00:37:46;;;;;;;45.33;27.08;;;4.20;99.90;;;;;;4889272;29;20095;-78
2023/02/06 00:40:13;;;;;;;47.67;29.10;;;4.20;99.90;;;;;;4886214;29;20060;-78
2023/02/06 00:42:40;;;;;;;44.65;26.77;;;4.20;99.90;;;;;;4893184;29;20136;-78
2023/02/06 00:45:07;;;;;;;42.90;27.13;;;4.20;99.90;;;;;;4888334;29;20397;-78
2023/02/06 00:47:34;;;;;;;36.25;22.50;;;4.20;99.90;;;;;;4869437;29;20615;-78
2023/02/06 00:50:01;;;;;;;30.60;19.40;;;4.20;99.90;;;;;;4879797;29;20056;-78
2023/02/06 00:52:28;;;;;;;36.38;21.50;;;4.10;99.90;;;;;;4890541;29;20510;-78
2023/02/06 00:54:54;;;;;;;39.03;25.15;;;4.10;99.90;;;;;;4888321;29;20582;-78
2023/02/06 00:57:21;;;;;;;38.95;26.27;;;4.10;99.90;;;;;;4884405;29;20132;-78
2023/02/06 00:59:48;;;;;;;39.28;24.70;;;4.10;99.90;;;;;;4882965;29;20045;-78
2023/02/06 01:02:14;;;;;;;41.08;24.52;;;4.10;99.90;;;;;;4877648;29;20504;-78
2023/02/06 01:04:41;;;;;;;41.05;26.02;;;4.10;99.90;;;;;;4893453;29;20076;-78
2023/02/06 01:07:08;;;;;;;37.63;23.65;;;4.20;99.90;;;;;;4893004;29;20439;-78
2023/02/06 01:09:35;;;;;;;38.30;26.30;;;4.20;99.90;;;;;;4879305;29;20084;-77
2023/02/06 01:12:01;;;;;;;35.88;23.70;;;4.20;99.90;;;;;;4886788;29;20053;-78
2023/02/06 01:14:28;;;;;;;37.50;23.55;;;4.20;99.90;;;;;;4867387;29;20055;-78
2023/02/06 01:16:55;;;;;;;36.53;23.45;;;4.10;99.90;;;;;;4885525;29;20053;-78
2023/02/06 01:19:22;;;;;;;38.95;24.08;;;4.10;99.90;;;;;;4891720;29;20139;-77
2023/02/06 01:21:48;;;;;;;38.03;25.83;;;4.00;99.90;;;;;;4885519;29;20499;-78
2023/02/06 01:24:15;;;;;;;42.35;25.88;;;4.10;99.90;;;;;;4882340;29;20049;-78
2023/02/06 01:26:41;;;;;;;44.33;25.40;;;4.10;99.90;;;;;;4883491;29;20510;-78
2023/02/06 01:29:08;;;;;;;41.13;25.35;;;4.10;99.90;;;;;;4890274;29;20530;-77
2023/02/06 01:31:35;;;;;;;37.35;23.65;;;4.10;99.90;;;;;;4879079;29;20169;-78
2023/02/06 01:34:02;;;;;;;37.63;23.42;;;4.10;99.90;;;;;;4880156;29;20091;-78
2023/02/06 01:36:28;;;;;;;37.22;22.85;;;4.10;99.90;;;;;;4889825;29;20045;-78
2023/02/06 01:38:55;;;;;;;38.72;23.38;;;4.10;99.90;;;;;;4885760;29;20135;-78
2023/02/06 01:41:22;;;;;;;35.90;23.15;;;4.10;99.90;;;;;;4866587;29;20053;-78
2023/02/06 01:44:11;;;;;;;36.70;23.60;;;4.10;99.90;;;;;;4867296;29;20147;-78
2023/02/06 01:46:40;;;;;;;36.33;22.98;;;4.10;99.90;;;;;;4890454;29;20085;-78
2023/02/06 01:49:12;;;;;;;37.35;24.80;;;4.10;99.90;;;;;;4888284;29;20052;-78
2023/02/06 01:51:39;;;;;;;37.70;24.27;;;4.10;99.90;;;;;;4895366;29;20139;-78
2023/02/06 01:54:07;;;;;;;36.92;22.58;;;4.20;99.90;;;;;;4889667;29;20139;-78
2023/02/06 01:56:41;;;;;;;37.10;24.88;;;4.10;99.90;;;;;;4886814;29;20045;-78
2023/02/06 01:59:08;;;;;;;41.30;24.63;;;4.10;99.90;;;;;;4872164;29;20145;-78
2023/02/06 02:01:35;;;;;;;42.72;26.05;;;4.00;99.90;;;;;;4887091;29;20063;-78
2023/02/06 02:04:05;;;;;;;40.60;26.42;;;4.00;99.90;;;;;;4880131;29;20143;-78
2023/02/06 02:06:33;;;;;;;39.30;24.92;;;4.10;99.90;;;;;;4885940;29;20092;-78
2023/02/06 02:09:02;;;;;;;38.85;25.30;;;4.10;99.90;;;;;;4885063;29;20103;-78
2023/02/06 02:11:35;;;;;;;41.55;25.67;;;4.10;99.90;;;;;;4893336;29;20090;-78
2023/02/06 02:14:06;;;;;;;39.08;23.92;;;4.10;99.90;;;;;;4895059;29;20056;-78
2023/02/06 02:16:35;;;;;;;36.90;24.33;;;4.10;99.90;;;;;;4876006;29;20078;-78
2023/02/06 02:19:36;;;;;;;38.85;24.45;;;4.10;99.90;;;;;;4897101;29;20052;-78
2023/02/06 02:22:29;;;;;;;34.47;23.05;;;4.10;99.90;;;;;;4889680;29;20080;-77
2023/02/06 02:25:14;;;;;;;37.03;24.30;;;4.10;99.90;;;;;;4872971;29;20092;-77
2023/02/06 02:28:00;;;;;;;35.35;22.58;;;4.10;99.90;;;;;;4891005;29;20554;-77
2023/02/06 02:31:04;;;;;;;33.35;22.00;;;4.00;99.90;;;;;;4890952;29;20051;-76
2023/02/06 02:33:55;;;;;;;33.45;21.98;;;4.00;99.90;;;;;;4890491;29;20053;-78
2023/02/06 02:36:29;;;;;;;36.33;23.33;;;4.00;99.90;;;;;;4893975;29;20087;-78
2023/02/06 02:39:21;;;;;;;32.72;21.77;;;4.00;99.90;;;;;;4888835;29;20055;-78
2023/02/06 02:41:57;;;;;;;34.25;22.02;;;4.00;99.90;;;;;;4904911;29;20084;-78
2023/02/06 02:44:37;;;;;;;36.65;21.27;;;4.00;99.90;;;;;;4891857;29;20055;-77
2023/02/06 02:47:10;;;;;;;32.70;21.00;;;4.00;99.90;;;;;;4890903;29;20517;-78
2023/02/06 02:49:40;;;;;;;34.30;22.65;;;4.00;99.90;;;;;;4885329;29;20045;-78
2023/02/06 02:52:07;;;;;;;34.83;22.90;;;4.00;99.90;;;;;;4885194;29;20596;-78
2023/02/06 02:54:34;;;;;;;38.55;24.00;;;4.10;99.90;;;;;;4888389;29;20051;-78
2023/02/06 02:57:21;;;;;;;39.50;25.05;;;4.10;99.90;;;;;;4892920;29;20080;-78
2023/02/06 02:59:49;;;;;;;33.58;22.55;;;4.00;99.90;;;;;;4892438;29;20053;-78
2023/02/06 03:02:31;;;;;;;30.02;20.88;;;4.00;99.90;;;;;;4896478;29;20049;-77
2023/02/06 03:05:03;;;;;;;34.75;22.38;;;4.00;99.90;;;;;;4888137;29;20093;-78
2023/02/06 03:07:29;;;;;;;33.17;22.13;;;3.90;99.90;;;;;;4887620;29;20097;-76
2023/02/06 03:10:20;;;;;;;33.25;20.98;;;3.90;99.90;;;;;;4888671;29;20503;-78
2023/02/06 03:12:55;;;;;;;33.85;21.73;;;3.90;99.90;;;;;;4889271;29;20109;-77
2023/02/06 03:15:28;;;;;;;34.45;21.88;;;4.00;99.90;;;;;;4888003;29;20087;-78
2023/02/06 03:18:11;;;;;;;34.83;22.48;;;3.90;99.90;;;;;;4886229;29;20045;-78
2023/02/06 03:20:43;;;;;;;32.35;20.90;;;3.90;99.90;;;;;;4867957;29;20053;-76
2023/02/06 03:23:22;;;;;;;33.63;22.30;;;3.90;99.90;;;;;;4894195;29;20059;-77
2023/02/06 03:25:53;;;;;;;34.28;22.50;;;3.90;99.90;;;;;;4891958;29;20131;-78
2023/02/06 03:28:24;;;;;;;31.38;21.55;;;3.90;99.90;;;;;;4893191;29;20091;-78
2023/02/06 03:30:55;;;;;;;33.88;21.75;;;3.90;99.90;;;;;;4889562;29;20088;-77
2023/02/06 03:33:29;;;;;;;32.50;21.52;;;3.90;99.90;;;;;;4885609;29;20174;-78
2023/02/06 03:35:56;;;;;;;30.27;20.33;;;3.90;99.90;;;;;;4885407;29;20099;-78
2023/02/06 03:38:24;;;;;;;31.42;20.48;;;3.80;99.90;;;;;;4890466;29;20045;-78
2023/02/06 03:40:53;;;;;;;30.17;19.90;;;3.80;99.90;;;;;;4890375;29;20062;-77
2023/02/06 03:43:21;;;;;;;28.88;19.50;;;3.80;99.90;;;;;;4881369;29;20059;-78
2023/02/06 03:45:52;;;;;;;27.02;20.02;;;3.80;99.90;;;;;;4888662;29;20056;-77
2023/02/06 03:48:47;;;;;;;29.48;19.13;;;3.80;99.90;;;;;;4890268;29;20092;-78
2023/02/06 03:51:20;;;;;;;29.65;20.67;;;3.80;99.90;;;;;;4871914;29;20700;-78
2023/02/06 03:53:50;;;;;;;29.13;19.13;;;3.80;99.90;;;;;;4889954;29;20044;-78
2023/02/06 03:56:52;;;;;;;26.50;18.60;;;3.80;99.90;;;;;;4892338;29;20037;-78
2023/02/06 03:59:19;;;;;;;28.60;19.48;;;3.80;99.90;;;;;;4888580;29;20044;-78
2023/02/06 04:01:50;;;;;;;25.75;18.08;;;3.80;99.90;;;;;;4882791;29;20053;-78
2023/02/06 04:04:20;;;;;;;23.83;17.95;;;3.80;99.90;;;;;;4885809;29;20052;-78
2023/02/06 04:06:47;;;;;;;29.48;19.83;;;3.80;99.90;;;;;;4891806;29;20155;-78
2023/02/06 04:09:13;;;;;;;26.85;19.08;;;3.80;99.90;;;;;;4892563;29;20502;-78
2023/02/06 04:11:40;;;;;;;30.08;19.58;;;3.80;99.90;;;;;;4893621;29;20419;-78
2023/02/06 04:14:07;;;;;;;29.02;20.63;;;3.80;99.90;;;;;;4889405;29;20415;-76
2023/02/06 04:16:33;;;;;;;26.23;17.35;;;3.80;99.90;;;;;;4885393;29;20087;-77
2023/02/06 04:19:00;;;;;;;24.50;17.58;;;3.70;99.90;;;;;;4886946;29;20518;-77
2023/02/06 04:21:27;;;;;;;23.50;17.05;;;3.70;99.90;;;;;;4887624;29;20562;-78
2023/02/06 04:23:53;;;;;;;22.40;16.17;;;3.70;99.90;;;;;;4890494;29;20081;-77
2023/02/06 04:26:20;;;;;;;21.63;15.45;;;3.70;99.90;;;;;;4885889;29;20135;-77
2023/02/06 04:28:47;;;;;;;22.55;15.38;;;3.70;99.90;;;;;;4881161;29;20139;-77
2023/02/06 04:31:13;;;;;;;21.17;15.70;;;3.70;99.90;;;;;;4888688;29;20578;-77
2023/02/06 04:33:40;;;;;;;17.48;12.30;;;3.60;99.90;;;;;;4887664;29;20100;-77
2023/02/06 04:36:07;;;;;;;18.70;13.45;;;3.60;99.90;;;;;;4880048;29;20085;-77
2023/02/06 04:38:34;;;;;;;19.13;14.98;;;3.50;99.90;;;;;;4890901;29;20563;-78
2023/02/06 04:41:02;;;;;;;20.27;15.02;;;3.60;99.90;;;;;;4889511;29;20488;-77
2023/02/06 04:43:30;;;;;;;21.02;14.98;;;3.60;99.90;;;;;;4883801;29;20080;-77
2023/02/06 04:45:57;;;;;;;18.25;12.40;;;3.60;99.90;;;;;;4867379;29;20415;-77
2023/02/06 04:48:24;;;;;;;19.23;12.85;;;3.50;99.90;;;;;;4879812;29;20495;-78
2023/02/06 04:50:51;;;;;;;17.35;13.55;;;3.50;99.90;;;;;;4889310;29;20053;-77
2023/02/06 04:53:18;;;;;;;17.35;13.07;;;3.50;99.90;;;;;;4878056;29;20139;-77
2023/02/06 04:55:44;;;;;;;19.23;13.85;;;3.50;99.90;;;;;;4893052;29;20064;-77
2023/02/06 04:58:11;;;;;;;18.15;13.32;;;3.40;99.90;;;;;;4888558;29;20049;-77
2023/02/06 05:00:38;;;;;;;19.65;13.88;;;3.50;99.90;;;;;;4885066;29;20045;-78
2023/02/06 05:03:04;;;;;;;19.73;14.50;;;3.40;99.90;;;;;;4878970;29;20049;-77
2023/02/06 05:05:31;;;;;;;16.90;13.13;;;3.40;99.90;;;;;;4887947;29;20051;-78
2023/02/06 05:07:58;;;;;;;19.95;15.07;;;3.50;99.90;;;;;;4888158;29;20112;-77
2023/02/06 05:10:25;;;;;;;20.70;15.20;;;3.50;99.90;;;;;;4883490;29;20060;-78
2023/02/06 05:12:54;;;;;;;19.80;14.30;;;3.50;99.90;;;;;;4877933;29;20422;-78
2023/02/06 05:15:21;;;;;;;19.30;14.30;;;3.40;99.90;;;;;;4876650;29;20052;-78
2023/02/06 05:17:48;;;;;;;20.30;14.23;;;3.40;99.90;;;;;;4888493;29;20108;-78
2023/02/06 05:20:15;;;;;;;22.98;14.70;;;3.30;99.90;;;;;;4893024;29;20044;-78
2023/02/06 05:22:42;;;;;;;19.92;14.07;;;3.30;99.90;;;;;;4890998;29;20359;-77
2023/02/06 05:25:08;;;;;;;21.38;15.18;;;3.20;99.90;;;;;;4879697;29;20060;-78
2023/02/06 05:27:35;;;;;;;20.35;14.98;;;3.20;99.90;;;;;;4884098;29;20107;-77
2023/02/06 05:30:02;;;;;;;20.75;14.25;;;3.20;99.90;;;;;;4886551;29;20083;-78
2023/02/06 05:32:29;;;;;;;20.80;15.38;;;3.20;99.90;;;;;;4888273;29;20140;-77
2023/02/06 05:34:55;;;;;;;20.15;15.48;;;3.20;99.90;;;;;;4885723;29;20048;-78
2023/02/06 05:37:22;;;;;;;20.95;14.07;;;3.10;99.90;;;;;;4883432;29;20501;-78
2023/02/06 05:39:49;;;;;;;19.30;13.85;;;3.10;99.90;;;;;;4879936;29;20100;-77
2023/02/06 05:42:15;;;;;;;23.88;15.38;;;3.10;99.90;;;;;;4892571;29;20091;-77
2023/02/06 05:44:42;;;;;;;21.52;16.10;;;3.20;99.90;;;;;;4891117;29;20088;-77
2023/02/06 05:47:09;;;;;;;21.35;15.23;;;3.20;99.90;;;;;;4893445;29;20408;-77
2023/02/06 05:49:35;;;;;;;23.70;16.95;;;3.20;99.90;;;;;;4892614;29;20054;-77
2023/02/06 05:52:02;;;;;;;21.48;15.75;;;3.20;99.90;;;;;;4890269;29;20150;-77
2023/02/06 05:54:29;;;;;;;22.98;16.48;;;3.20;99.90;;;;;;4877910;29;20041;-77
2023/02/06 05:56:58;;;;;;;28.00;17.85;;;3.20;99.90;;;;;;4887329;29;20083;-77
2023/02/06 05:59:25;;;;;;;25.02;17.33;;;3.20;99.90;;;;;;4879216;29;20409;-77
2023/02/06 06:01:51;;;;;;;24.60;16.90;;;3.20;99.90;;;;;;4889033;29;20052;-77
2023/02/06 06:04:18;;;;;;;24.85;17.27;;;3.20;99.90;;;;;;4887259;29;20056;-77
2023/02/06 06:06:45;;;;;;;25.33;17.33;;;3.10;99.90;;;;;;4891944;29;20132;-77
2023/02/06 06:09:12;;;;;;;23.08;16.73;;;3.00;99.90;;;;;;4890409;29;20056;-77
2023/02/06 06:11:39;;;;;;;26.50;18.30;;;3.00;99.90;;;;;;4888139;29;20447;-77
2023/02/06 06:14:06;;;;;;;27.20;19.42;;;3.00;99.90;;;;;;4890452;29;20053;-78
2023/02/06 06:16:33;;;;;;;28.20;18.75;;;2.90;99.90;;;;;;4889429;29;20075;-77
2023/02/06 06:19:00;;;;;;;26.65;18.58;;;2.90;99.90;;;;;;4880549;29;20049;-78
2023/02/06 06:21:27;;;;;;;28.23;19.48;;;2.80;99.90;;;;;;4867231;29;20045;-77
2023/02/06 06:23:54;;;;;;;30.63;19.38;;;2.80;99.90;;;;;;4883500;29;20513;-77
2023/02/06 06:26:20;;;;;;;32.78;21.85;;;2.90;99.90;;;;;;4891769;29;20100;-77
2023/02/06 06:28:47;;;;;;;27.05;19.50;;;2.90;99.90;;;;;;4892108;29;20126;-77
2023/02/06 06:31:14;;;;;;;28.35;19.60;;;3.00;99.90;;;;;;4894307;29;20079;-77
2023/02/06 06:33:41;;;;;;;31.08;19.63;;;3.00;99.90;;;;;;4878783;29;20056;-77
2023/02/06 06:36:09;;;;;;;27.10;17.67;;;3.00;99.90;;;;;;4888953;29;20049;-78
2023/02/06 06:38:37;;;;;;;24.77;17.30;;;3.00;99.90;;;;;;4886397;29;20113;-77
2023/02/06 06:41:04;;;;;;;28.17;18.08;;;2.90;99.90;;;;;;4886839;29;20045;-77
2023/02/06 06:43:32;;;;;;;28.42;18.48;;;2.90;99.90;;;;;;4892987;29;20044;-76
2023/02/06 06:46:03;;;;;;;30.05;18.80;;;2.90;99.90;;;;;;4873067;29;20063;-78
2023/02/06 06:48:30;;;;;;;28.98;18.92;;;2.80;99.90;;;;;;4884354;29;20523;-77
2023/02/06 06:50:57;;;;;;;31.08;18.58;;;2.80;99.90;;;;;;4885111;29;20073;-77
2023/02/06 06:53:24;;;;;;;31.52;20.45;;;2.90;99.90;;;;;;4890800;29;20550;-77
2023/02/06 06:55:50;;;;;;;34.83;19.52;;;2.80;99.90;;;;;;4891413;29;20118;-77
2023/02/06 06:58:17;;;;;;;31.05;19.02;;;2.90;99.90;;;;;;4890976;29;20430;-77
2023/02/06 07:00:44;;;;;;;29.80;19.00;;;2.90;99.90;;;;;;4889894;29;20397;-78
2023/02/06 07:03:11;;;;;;;29.45;19.45;;;2.90;99.90;;;;;;4887308;29;20507;-77
2023/02/06 07:05:38;;;;;;;30.27;19.98;;;2.90;99.90;;;;;;4883985;29;20064;-78
2023/02/06 07:08:05;;;;;;;46.30;26.17;;;2.90;99.90;;;;;;4887953;29;20053;-78
2023/02/06 07:10:32;;;;;;;33.22;22.55;;;2.90;99.90;;;;;;4882343;29;20061;-77
2023/02/06 07:12:58;;;;;;;33.15;22.13;;;2.90;99.90;;;;;;4873461;29;20048;-78
2023/02/06 07:15:25;;;;;;;32.83;21.20;;;2.90;99.90;;;;;;4897134;29;20132;-78
2023/02/06 07:17:52;;;;;;;27.77;20.48;;;2.90;99.90;;;;;;4880927;29;20060;-78
2023/02/06 07:20:19;;;;;;;30.80;20.52;;;2.90;99.90;;;;;;4891424;29;20131;-78
2023/02/06 07:22:46;;;;;;;27.30;18.50;;;3.00;99.90;;;;;;4888912;29;20104;-78
2023/02/06 07:25:13;;;;;;;26.80;17.85;;;2.90;99.90;;;;;;4892085;29;20067;-78
2023/02/06 07:27:39;;;;;;;26.75;18.58;;;3.00;99.90;;;;;;4892466;29;20480;-77
2023/02/06 07:30:07;;;;;;;28.55;19.20;;;3.00;99.90;;;;;;4889023;29;20613;-78
2023/02/06 07:32:35;;;;;;;27.35;18.33;;;3.00;99.90;;;;;;4883784;29;20500;-78
2023/02/06 07:35:03;;;;;;;27.77;18.70;;;3.00;99.90;;;;;;4890433;29;20415;-77
2023/02/06 07:37:29;;;;;;;24.75;18.15;;;3.10;99.90;;;;;;4894025;29;20108;-78
2023/02/06 07:39:56;;;;;;;26.08;17.90;;;3.10;99.90;;;;;;4893881;29;20132;-77
2023/02/06 07:42:23;;;;;;;21.83;15.95;;;3.10;99.90;;;;;;4873986;29;20630;-78
2023/02/06 07:44:50;;;;;;;26.30;17.33;;;3.20;99.90;;;;;;4891253;29;20057;-78
2023/02/06 07:47:17;;;;;;;26.08;19.52;;;3.10;99.90;;;;;;4886161;29;20387;-78
2023/02/06 07:49:43;;;;;;;28.88;18.20;;;3.20;99.90;;;;;;4887092;29;20092;-78
2023/02/06 07:52:10;;;;;;;26.38;18.67;;;3.20;99.90;;;;;;4890947;29;20052;-78
2023/02/06 07:54:37;;;;;;;24.67;17.38;;;3.20;99.90;;;;;;4875611;29;20135;-78
2023/02/06 07:57:03;;;;;;;26.70;17.52;;;3.20;99.90;;;;;;4888193;29;20097;-78
2023/02/06 07:59:30;;;;;;;24.60;17.42;;;3.20;99.90;;;;;;4887892;29;20080;-78
2023/02/06 08:01:57;;;;;;;22.73;16.27;;;3.20;99.90;;;;;;4891255;29;20132;-78
2023/02/06 08:04:23;;;;;;;25.10;16.17;;;3.20;99.90;;;;;;4890415;29;20049;-78
2023/02/06 08:06:50;;;;;;;21.70;15.25;;;3.20;99.90;;;;;;4873705;29;20052;-78
2023/02/06 08:09:17;;;;;;;20.70;15.02;;;3.30;99.90;;;;;;4890089;29;20536;-78
2023/02/06 08:11:44;;;;;;;21.90;15.00;;;3.30;99.90;;;;;;4877723;29;20090;-78
2023/02/06 08:14:10;;;;;;;21.67;15.13;;;3.20;99.90;;;;;;4886528;29;20049;-78
2023/02/06 08:16:38;;;;;;;21.88;15.40;;;3.30;99.90;;;;;;4880478;29;20132;-77
2023/02/06 08:19:05;;;;;;;23.33;15.30;;;3.30;99.90;;;;;;4889980;29;20108;-78
2023/02/06 08:21:32;;;;;;;23.70;16.15;;;3.20;99.90;;;;;;4875087;29;20080;-78
2023/02/06 08:23:59;;;;;;;22.77;15.88;;;3.10;99.90;;;;;;4894557;29;20112;-78
2023/02/06 08:26:28;;;;;;;24.77;16.05;;;3.10;99.90;;;;;;4882942;29;20124;-78
2023/02/06 08:28:56;;;;;;;23.77;15.57;;;3.20;99.90;;;;;;4890002;29;20076;-78
2023/02/06 08:31:27;;;;;;;23.02;16.50;;;3.20;99.90;;;;;;4888249;29;20092;-77
2023/02/06 08:33:54;;;;;;;24.75;16.67;;;3.20;99.90;;;;;;4871109;29;20059;-78
2023/02/06 08:36:22;;;;;;;25.05;17.58;;;3.20;99.90;;;;;;4892251;29;20048;-78
2023/02/06 08:38:50;;;;;;;25.27;17.33;;;3.20;99.90;;;;;;4889507;29;20091;-78
2023/02/06 08:41:25;;;;;;;24.65;17.02;;;3.30;99.90;;;;;;4879194;29;20104;-78
2023/02/06 08:43:57;;;;;;;20.98;14.95;;;3.40;99.90;;;;;;4869163;29;20057;-78
2023/02/06 08:46:28;;;;;;;26.48;17.08;;;3.50;99.90;;;;;;4891471;29;20117;-78
2023/02/06 08:49:03;;;;;;;23.77;16.60;;;3.50;99.90;;;;;;4874996;29;20075;-78
2023/02/06 08:51:31;;;;;;;24.58;17.52;;;3.60;99.90;;;;;;4891416;29;20151;-78
2023/02/06 08:54:01;;;;;;;23.88;16.83;;;3.60;99.90;;;;;;4891783;29;20135;-78
2023/02/06 08:56:28;;;;;;;23.50;16.05;;;3.60;99.90;;;;;;4886734;29;20053;-77
2023/02/06 08:58:58;;;;;;;22.48;15.43;;;3.70;99.90;;;;;;4884410;29;20075;-78
2023/02/06 09:01:26;;;;;;;;;;;3.70;99.90;;;;;;4884724;29;20088;-78
2023/02/06 09:03:57;;;;;;;22.77;16.05;;;3.80;99.90;;;;;;4891268;29;19927;-78
2023/02/06 09:06:25;;;;;;;22.05;15.52;;;3.80;99.90;;;;;;4888950;29;20143;-78
2023/02/06 09:08:52;;;;;;;19.23;14.05;;;3.90;99.90;;;;;;4883762;29;20447;-78
2023/02/06 09:11:20;;;;;;;19.70;13.60;;;4.00;99.90;;;;;;4874027;29;20048;-78
2023/02/06 09:13:48;;;;;;;21.17;14.40;;;4.00;99.90;;;;;;4887751;29;20406;-78
2023/02/06 09:16:17;;;;;;;21.20;13.63;;;4.10;99.90;;;;;;4889635;29;20048;-78
2023/02/06 09:18:46;;;;;;;23.73;14.63;;;3.90;99.90;;;;;;4889665;29;20052;-77
2023/02/06 09:21:16;;;;;;;21.60;13.60;;;3.70;99.90;;;;;;4890957;29;20052;-78
2023/02/06 09:23:45;;;;;;;21.60;14.57;;;3.90;99.90;;;;;;4885162;29;20088;-78
2023/02/06 09:26:14;;;;;;;20.67;14.45;;;4.00;99.90;;;;;;4883241;29;20590;-78
2023/02/06 09:28:41;;;;;;;25.27;17.53;;;4.00;99.90;;;;;;4887375;29;20068;-77
2023/02/06 09:31:08;;;;;;;17.23;12.85;;;4.10;99.90;;;;;;4891893;29;20060;-78
2023/02/06 09:33:39;;;;;;;18.73;12.93;;;4.10;99.90;;;;;;4891112;29;20581;-78
2023/02/06 09:36:13;;;;;;;19.98;13.38;;;4.00;99.90;;;;;;4881161;29;20057;-78
2023/02/06 09:38:46;;;;;;;19.95;13.55;;;4.00;99.90;;;;;;4877557;29;20052;-77
2023/02/06 09:41:25;;;;;;;18.05;11.95;;;4.10;99.90;;;;;;4887662;29;20131;-78
2023/02/06 09:44:16;;;;;;;16.20;11.02;;;4.00;99.90;;;;;;4886334;29;20087;-77
2023/02/06 09:47:03;;;;;;;17.13;11.77;;;3.80;99.90;;;;;;4891276;29;20140;-78
2023/02/06 09:49:53;;;;;;;16.40;11.48;;;3.80;99.90;;;;;;4871366;29;20045;-78
2023/02/06 09:52:51;;;;;;;15.60;11.50;;;3.80;99.90;;;;;;4882599;29;20080;-79
2023/02/06 09:55:38;;;;;;;16.17;11.00;;;4.00;99.90;;;;;;4889712;29;20096;-78
2023/02/06 09:58:42;;;;;;;17.27;11.25;;;4.20;99.90;;;;;;4891590;29;20095;-79
2023/02/06 10:01:15;;;;;;;18.20;11.57;;;4.30;99.90;;;;;;4891824;29;20049;-78
2023/02/06 10:04:15;;;;;;;14.85;10.80;;;4.20;99.90;;;;;;4891117;29;20055;-78
2023/02/06 10:07:02;;;;;;;;;;;4.30;99.90;;;;;;4885686;29;20053;-78
2023/02/06 10:09:58;;;;;;;14.18;10.43;;;4.40;99.90;;;;;;4883117;29;19945;-78
2023/02/06 10:12:55;;;;;;;15.32;11.18;;;4.50;99.90;;;;;;4890548;29;20064;-77
2023/02/06 10:15:31;;;;;;;18.58;11.02;;;4.60;99.90;;;;;;4882536;29;20053;-79
2023/02/06 10:18:05;;;;;;;18.27;10.90;;;4.60;99.90;;;;;;4881088;29;20115;-79
2023/02/06 10:20:37;;;;;;;14.77;10.65;;;4.60;99.90;;;;;;4894580;29;20049;-79
2023/02/06 10:23:43;;;;;;;13.70;9.48;;;4.60;99.90;;;;;;4879964;29;20095;-79
2023/02/06 10:26:17;;;;;;;13.40;10.70;;;4.50;99.90;;;;;;4889176;29;20574;-78
2023/02/06 10:28:52;;;;;;;14.38;11.43;;;4.50;99.90;;;;;;4891856;29;20049;-79
2023/02/06 10:31:22;;;;;;;17.17;12.05;;;4.60;99.90;;;;;;4892385;29;20089;-79
2023/02/06 10:34:13;;;;;;;14.55;10.40;;;4.60;99.90;;;;;;4888973;29;20060;-79
2023/02/06 10:37:02;;;;;;;13.98;9.35;;;4.60;99.90;;;;;;4887462;29;20052;-78
2023/02/06 10:39:46;;;;;;;15.35;10.23;;;4.70;99.90;;;;;;4893794;29;20047;-79
2023/02/06 10:42:41;;;;;;;16.08;10.85;;;4.80;99.90;;;;;;4895303;29;20506;-78
2023/02/06 10:45:36;;;;;;;12.30;9.68;;;4.80;99.90;;;;;;4895424;29;20080;-78
2023/02/06 10:48:15;;;;;;;14.77;10.00;;;4.80;99.90;;;;;;4861962;29;20135;-78
2023/02/06 10:50:57;;;;;;;12.23;9.13;;;4.80;99.90;;;;;;4886388;29;20550;-78
2023/02/06 10:53:49;;;;;;;12.57;9.63;;;4.80;99.90;;;;;;4887428;29;20069;-78
2023/02/06 10:56:21;;;;;;;16.13;9.27;;;4.90;99.90;;;;;;4882601;29;20135;-78
2023/02/06 10:58:59;;;;;;;15.82;10.48;;;4.90;99.90;;;;;;4891072;29;20084;-77
2023/02/06 11:01:31;;;;;;;12.13;9.57;;;5.00;99.90;;;;;;4881020;29;20120;-78
2023/02/06 11:04:31;;;;;;;13.32;10.27;;;5.00;99.90;;;;;;4883558;29;20572;-78
2023/02/06 11:07:02;;;;;;;14.68;10.10;;;5.00;99.90;;;;;;4890544;29;20157;-78
2023/02/06 11:09:30;;;;;;;12.68;9.70;;;5.10;99.90;;;;;;4891197;29;20052;-78
2023/02/06 11:11:58;;;;;;;17.50;11.52;;;5.10;99.90;;;;;;4892021;29;20052;-78
2023/02/06 11:14:30;;;;;;;13.68;9.50;;;5.10;99.90;;;;;;4892140;29;20083;-78
2023/02/06 11:17:01;;;;;;;13.77;10.23;;;5.20;99.90;;;;;;4887712;29;20049;-78
2023/02/06 11:19:32;;;;;;;12.55;9.63;;;5.10;99.90;;;;;;4889230;29;20053;-79
2023/02/06 11:22:10;;;;;;;14.10;10.00;;;5.10;99.90;;;;;;4887825;29;20414;-79
2023/02/06 11:24:38;;;;;;;14.85;10.40;;;5.10;99.90;;;;;;4894548;29;20144;-79
2023/02/06 11:27:15;;;;;;;14.95;9.82;;;5.00;99.90;;;;;;4873823;29;20092;-79
2023/02/06 11:29:46;;;;;;;13.50;9.75;;;5.00;99.90;;;;;;4883506;29;20089;-79
2023/02/06 11:32:28;;;;;;;;;;;5.10;99.90;;;;;;4891896;29;20055;-79
2023/02/06 11:35:28;;;;;;;15.32;9.93;;;5.30;99.90;;;;;;4888230;29;20049;-79
2023/02/06 11:38:14;;;;;;;15.05;9.38;;;5.40;99.90;;;;;;4878038;29;20135;-79
2023/02/06 11:40:41;;;;;;;14.63;10.65;;;5.40;99.90;;;;;;4892624;29;20474;-79
2023/02/06 11:43:16;;;;;;;17.02;10.00;;;5.40;99.90;;;;;;4891249;29;20128;-79
2023/02/06 11:45:46;;;;;;;12.75;9.65;;;5.50;99.90;;;;;;4885418;29;20099;-79
2023/02/06 11:48:34;;;;;;;12.30;9.63;;;5.60;99.90;;;;;;4886707;29;20053;-79
2023/02/06 11:51:01;;;;;;;10.00;8.38;;;5.80;99.90;;;;;;4895497;29;20288;-78
2023/02/06 11:53:28;;;;;;;13.95;10.10;;;5.90;99.90;;;;;;4893637;29;20053;-79
2023/02/06 11:56:19;;;;;;;14.40;9.20;;;6.00;99.90;;;;;;4893056;29;20147;-79
2023/02/06 11:59:00;;;;;;;12.43;8.60;;;6.00;99.90;;;;;;4889313;29;20108;-79
2023/02/06 12:01:26;;;;;;;14.70;9.88;;;6.00;99.90;;;;;;4877226;29;20045;-79
2023/02/06 12:03:57;;;;;;;17.73;10.27;;;6.00;99.90;;;;;;4887341;29;20072;-79
2023/02/06 12:06:39;;;;;;;14.05;10.18;;;6.00;99.90;;;;;;4892954;29;20056;-79
2023/02/06 12:09:11;;;;;;;14.23;10.10;;;6.00;99.90;;;;;;4892158;29;20108;-79
2023/02/06 12:11:46;;;;;;;13.73;10.98;;;6.00;99.90;;;;;;4886840;29;20084;-79
2023/02/06 12:14:21;;;;;;;13.00;9.63;;;6.00;99.90;;;;;;4885539;29;20080;-79
2023/02/06 12:16:49;;;;;;;18.63;9.40;;;6.00;99.90;;;;;;4873032;29;20045;-79
2023/02/06 12:19:32;;;;;;;12.65;8.88;;;6.00;99.90;;;;;;4892444;29;20060;-79
2023/02/06 12:22:14;;;;;;;17.02;9.85;;;6.00;99.90;;;;;;4892252;29;20053;-77
2023/02/06 12:24:45;;;;;;;13.77;10.05;;;6.10;99.90;;;;;;4877039;29;20136;-78
2023/02/06 12:27:26;;;;;;;14.45;9.77;;;6.10;99.90;;;;;;4889440;29;20526;-77
2023/02/06 12:30:28;;;;;;;15.10;10.85;;;6.10;99.90;;;;;;4884035;29;20091;-78
2023/02/06 12:33:13;;;;;;;13.68;9.82;;;6.10;99.90;;;;;;4887703;29;20483;-81
2023/02/06 12:35:48;;;;;;;14.00;10.27;;;6.10;99.90;;;;;;4888946;29;20060;-79
2023/02/06 12:38:51;;;;;;;14.43;10.20;;;6.10;99.90;;;;;;4882331;29;20084;-79
2023/02/06 12:41:25;;;;;;;15.68;10.20;;;6.20;99.90;;;;;;4896145;29;20083;-79
2023/02/06 12:44:12;;;;;;;16.55;12.02;;;6.30;99.90;;;;;;4886863;29;20049;-79
2023/02/06 12:46:39;;;;;;;16.08;11.43;;;6.40;99.90;;;;;;4871171;29;20061;-78
2023/02/06 12:49:18;;;;;;;15.82;11.63;;;6.50;99.90;;;;;;4887781;29;20147;-78
2023/02/06 12:51:56;;;;;;;15.38;10.15;;;6.60;99.90;;;;;;4889854;29;20056;-79
2023/02/06 12:54:38;;;;;;;15.77;10.77;;;6.70;99.90;;;;;;4889013;29;20149;-78
2023/02/06 12:57:27;;;;;;;14.63;10.65;;;6.70;99.90;;;;;;4865527;29;20091;-79
2023/02/06 13:00:15;;;;;;;14.05;9.90;;;6.70;99.90;;;;;;4892580;29;20848;-79
2023/02/06 13:03:01;;;;;;;13.40;9.95;;;6.70;99.90;;;;;;4892116;29;20136;-79